Time;durP1;ratioP1;P1;durP2;ratioP2;P2;SDS_P1;SDS_P2;PMS_P1;PMS_P2;Temp;Humidity;BMP_temperature;BMP_pressure;BME280_temperature;BME280_humidity;BME280_pressure;Samples;Min_cycle;Max_cycle;Signal;HPM_P1;HPM_P2
2022/04/04 00:00:54;;;;;;;;;;;;;;;-144.19;100.00;78044.00;5036762;28;19926;-80
2022/04/04 00:03:21;;;;;;;;;;;;;;;-144.19;100.00;78040.06;5018530;28;19925;-79
2022/04/04 00:05:48;;;;;;;;;;;;;;;-144.19;100.00;78042.03;5037756;28;19936;-81
2022/04/04 00:08:14;;;;;;;;;;;;;;;-144.19;100.00;78059.75;5021404;28;20652;-82
2022/04/04 00:10:40;;;;;;;;;;;;;;;-144.19;100.00;78047.94;5038772;28;20427;-80
2022/04/04 00:13:07;;;;;;;;;;;;;;;-144.19;100.00;78065.66;5037300;28;20028;-80
2022/04/04 00:15:33;;;;;;;;;;;;;;;-144.19;100.00;78036.13;5035941;28;19976;-80
2022/04/04 00:20:28;;;;;;;;;;;;;;;-144.19;100.00;78032.19;5007820;28;20412;-84
2022/04/04 00:22:54;;;;;;;;;;;;;;;-144.19;100.00;78040.06;5008379;28;19929;-84
2022/04/04 00:25:21;;;;;;;;;;;;;;;-144.19;100.00;78053.84;4990639;28;19925;-84
2022/04/04 00:27:48;;;;;;;;;;;;;;;-144.19;100.00;78040.06;5005086;28;19925;-84
2022/04/04 00:30:15;;;;;;;;;;;;;;;-144.19;100.00;78040.06;4973534;28;20224;-84
2022/04/04 00:32:41;;;;;;;;;;;;;;;-144.19;100.00;78053.84;4991482;28;19926;-83
2022/04/04 00:35:07;;;;;;;;;;;;;;;-144.19;100.00;78042.03;4996285;28;19926;-84
2022/04/04 00:37:34;;;;;;;;;;;;;;;-144.19;100.00;78051.88;4978080;28;19933;-85
2022/04/04 00:40:00;;;;;;;;;;;;;;;-144.19;100.00;78032.19;4977992;28;19926;-85
2022/04/04 00:42:26;;;;;;;;;;;;;;;-144.19;100.00;78030.22;4994115;28;19941;-85
2022/04/04 00:44:53;;;;;;;;;;;;;;;-144.19;100.00;78038.09;4994827;28;19932;-84
2022/04/04 00:47:19;;;;;;;;;;;;;;;-144.19;100.00;78020.34;4977053;28;19949;-85
2022/04/04 00:49:45;;;;;;;;;;;;;;;-144.19;100.00;78012.47;4994656;28;20340;-85
2022/04/04 00:52:12;;;;;;;;;;;;;;;-144.19;100.00;78028.22;4976133;28;19941;-87
2022/04/04 00:54:38;;;;;;;;;;;;;;;-144.19;100.00;78022.31;4995045;28;20431;-85
2022/04/04 00:57:04;;;;;;;;;;;;;;;-144.19;100.00;78020.34;4977065;28;19932;-85
2022/04/04 00:59:31;;;;;;;;;;;;;;;-144.19;100.00;78012.47;4977038;28;19925;-85
2022/04/04 01:01:57;;;;;;;;;;;;;;;-144.19;100.00;78000.66;4976418;28;19933;-85
2022/04/04 01:04:24;;;;;;;;;;;;;;;-144.19;100.00;78016.41;4994718;28;19925;-86
2022/04/04 01:06:50;;;;;;;;;;;;;;;-144.19;100.00;78012.47;4994197;28;19930;-86
2022/04/04 01:09:16;;;;;;;;;;;;;;;-144.19;100.00;78010.50;4994785;28;19925;-85
2022/04/04 01:12:02;;;;;;;;;;;;;;;-144.19;100.00;78018.38;4976402;28;19936;-87
2022/04/04 01:14:28;;;;;;;;;;;;;;;-144.19;100.00;78010.50;4976459;28;19936;-83
2022/04/04 01:16:55;;;;;;;;;;;;;;;-144.19;100.00;78000.66;4993864;28;20036;-85
2022/04/04 01:19:21;;;;;;;;;;;;;;;-144.19;100.00;78022.31;4976312;28;19932;-84
2022/04/04 01:21:47;;;;;;;;;;;;;;;-144.19;100.00;78004.59;4975579;28;19953;-84
2022/04/04 01:24:21;;;;;;;;;;;;;;;-144.19;100.00;78016.41;4975527;28;19932;-85
2022/04/04 01:26:48;;;;;;;;;;;;;;;-144.19;100.00;78004.59;4993969;28;19925;-85
2022/04/04 01:29:14;;;;;;;;;;;;;;;-144.19;100.00;78024.31;4993476;28;19926;-85
2022/04/04 01:31:41;;;;;;;;;;;;;;;-144.19;100.00;78008.53;4993393;28;19926;-85
2022/04/04 01:34:07;;;;;;;;;;;;;;;-144.19;100.00;78012.47;4993064;28;19933;-83
2022/04/04 01:36:33;;;;;;;;;;;;;;;-144.19;100.00;78012.47;4993779;28;19926;-84
2022/04/04 01:39:00;;;;;;;;;;;;;;;-144.19;100.00;77990.81;4993323;28;19932;-83
2022/04/04 01:41:27;;;;;;;;;;;;;;;-144.19;100.00;77984.91;4993235;28;19958;-83
2022/04/04 01:43:53;;;;;;;;;;;;;;;-144.19;100.00;77992.78;4975851;28;20398;-83
2022/04/04 01:46:26;;;;;;;;;;;;;;;-144.19;100.00;77994.75;4975781;28;19926;-85
2022/04/04 01:48:54;;;;;;;;;;;;;;;-144.19;100.00;77996.72;4993139;28;20511;-84
2022/04/04 01:51:21;;;;;;;;;;;;;;;-144.19;100.00;78006.56;4974427;28;19925;-85
2022/04/04 01:53:47;;;;;;;;;;;;;;;-144.19;100.00;78018.38;4991300;28;19925;-82
2022/04/04 01:56:13;;;;;;;;;;;;;;;-144.19;100.00;78028.22;4991465;28;19940;-81
2022/04/04 01:58:40;;;;;;;;;;;;;;;-144.19;100.00;78008.53;4992212;28;19930;-84
2022/04/04 02:01:11;;;;;;;;;;;;;;;-144.19;100.00;78014.44;4990394;28;19926;-83
2022/04/04 02:03:38;;;;;;;;;;;;;;;-144.19;100.00;78012.47;4973364;28;20354;-84
2022/04/04 02:06:04;;;;;;;;;;;;;;;-144.19;100.00;78004.59;4990586;28;20372;-83
2022/04/04 02:08:31;;;;;;;;;;;;;;;-144.19;100.00;78000.66;4990498;28;20420;-81
2022/04/04 02:10:58;;;;;;;;;;;;;;;-144.19;100.00;77992.78;4973216;28;20348;-84
2022/04/04 02:13:25;;;;;;;;;;;;;;;-144.19;100.00;77980.97;4988706;28;19932;-82
2022/04/04 02:15:52;;;;;;;;;;;;;;;-144.19;100.00;77975.06;4990462;28;20197;-82
2022/04/04 02:18:19;;;;;;;;;;;;;;;-144.19;100.00;77977.03;4990705;28;20426;-83
2022/04/04 02:20:46;;;;;;;;;;;;;;;-144.19;100.00;77957.34;4975291;28;19933;-83
2022/04/04 02:23:17;;;;;;;;;;;;;;;-144.19;100.00;77949.47;4991652;28;19929;-84
2022/04/04 02:25:44;;;;;;;;;;;;;;;-144.19;100.00;77937.66;4975633;28;19969;-83
2022/04/04 02:28:11;;;;;;;;;;;;;;;-144.19;100.00;77935.69;4976931;28;19948;-84
2022/04/04 02:30:37;;;;;;;;;;;;;;;-144.19;100.00;77945.53;4993053;28;19947;-85
2022/04/04 02:33:04;;;;;;;;;;;;;;;-144.19;100.00;77943.56;4989443;28;19933;-86
2022/04/04 02:35:31;;;;;;;;;;;;;;;-144.19;100.00;77957.34;4958463;28;19949;-85
2022/04/04 02:37:57;;;;;;;;;;;;;;;-144.19;100.00;77943.56;4971097;28;19926;-83
2022/04/04 02:40:23;;;;;;;;;;;;;;;-144.19;100.00;77957.34;4954186;28;19952;-85
2022/04/04 02:42:50;;;;;;;;;;;;;;;-144.19;100.00;77955.38;4954476;28;19989;-85
2022/04/04 02:45:16;;;;;;;;;;;;;;;-144.19;100.00;77949.47;4973089;28;19929;-85
2022/04/04 02:47:43;;;;;;;;;;;;;;;-144.19;100.00;77949.47;4972719;28;19930;-85
2022/04/04 02:50:10;;;;;;;;;;;;;;;-144.19;100.00;77945.53;4971763;28;19960;-83
2022/04/04 02:52:36;;;;;;;;;;;;;;;-144.19;100.00;77933.72;4954072;28;20379;-84
2022/04/04 02:56:28;;;;;;;;;;;;;;;-144.19;100.00;77933.72;4955103;28;19972;-84
2022/04/04 02:57:49;;;;;;;;;;;;;;;-144.19;100.00;77953.41;4971694;28;20405;-83
2022/04/04 03:00:17;;;;;;;;;;;;;;;-144.19;100.00;77941.59;4955113;28;20396;-84
2022/04/04 03:02:44;;;;;;;;;;;;;;;-144.19;100.00;77927.81;4954858;28;20444;-85
2022/04/04 03:05:11;;;;;;;;;;;;;;;-144.19;100.00;77917.97;4955825;28;20357;-85
2022/04/04 03:07:37;;;;;;;;;;;;;;;-144.19;100.00;77914.03;4973072;28;19927;-83
2022/04/04 03:10:03;;;;;;;;;;;;;;;-144.19;100.00;77906.16;4973836;28;19933;-85
2022/04/04 03:12:30;;;;;;;;;;;;;;;-144.19;100.00;77894.34;4972788;28;19926;-84
2022/04/04 03:14:56;;;;;;;;;;;;;;;-144.19;100.00;77886.47;4955416;28;19948;-84
2022/04/04 03:17:22;;;;;;;;;;;;;;;-144.19;100.00;77878.59;4982681;28;19929;-84
2022/04/04 03:19:49;;;;;;;;;;;;;;;-144.19;100.00;77874.66;4980625;28;20308;-86
2022/04/04 03:22:15;;;;;;;;;;;;;;;-144.19;100.00;77876.63;4964410;28;19930;-85
2022/04/04 03:24:41;;;;;;;;;;;;;;;-144.19;100.00;77866.78;4964384;28;20266;-84
2022/04/04 03:27:08;;;;;;;;;;;;;;;-144.19;100.00;77862.84;4974648;28;19926;-84
2022/04/04 03:29:34;;;;;;;;;;;;;;;-144.19;100.00;77831.31;4974364;28;19926;-83
2022/04/04 03:32:01;;;;;;;;;;;;;;;-144.19;100.00;77839.19;4973759;28;19925;-85
2022/04/04 03:34:27;;;;;;;;;;;;;;;-144.19;100.00;77819.50;4966779;28;19930;-84
2022/04/04 03:36:53;;;;;;;;;;;;;;;-144.19;100.00;77823.44;4955239;28;19926;-84
2022/04/04 03:39:20;;;;;;;;;;;;;;;-144.19;100.00;77799.81;4972261;28;19926;-82
2022/04/04 03:41:47;;;;;;;;;;;;;;;-144.19;100.00;77786.03;4954842;28;19933;-83
2022/04/04 03:44:13;;;;;;;;;;;;;;;-144.19;100.00;77813.59;4954385;28;19989;-84
2022/04/04 03:46:39;;;;;;;;;;;;;;;-144.19;100.00;77793.91;4972463;28;19926;-83
2022/04/04 03:49:05;;;;;;;;;;;;;;;-144.19;100.00;77772.25;4955644;28;19926;-83
2022/04/04 03:51:32;;;;;;;;;;;;;;;-144.19;100.00;77754.53;4972477;28;20366;-85
2022/04/04 03:53:58;;;;;;;;;;;;;;;-144.19;100.00;77776.19;4971720;28;19927;-81
2022/04/04 03:56:25;;;;;;;;;;;;;;;-144.19;100.00;77760.44;4972084;28;19926;-82
2022/04/04 03:58:53;;;;;;;;;;;;;;;-144.19;100.00;77762.41;4972364;28;19926;-82
2022/04/04 04:01:19;;;;;;;;;;;;;;;-144.19;100.00;77760.44;4972198;28;20373;-81
2022/04/04 04:03:46;;;;;;;;;;;;;;;-144.19;100.00;77778.16;4954389;28;19926;-83
2022/04/04 04:06:12;;;;;;;;;;;;;;;-144.19;100.00;77768.31;4954118;28;19933;-82
2022/04/04 04:08:39;;;;;;;;;;;;;;;-144.19;100.00;77776.19;4957276;28;19933;-83
2022/04/04 04:11:06;;;;;;;;;;;;;;;-144.19;100.00;77768.31;4976300;28;19926;-84
2022/04/04 04:13:32;;;;;;;;;;;;;;;-144.19;100.00;77764.38;4976354;28;20269;-80
2022/04/04 04:15:59;;;;;;;;;;;;;;;-144.19;100.00;77752.56;4976749;28;19927;-86
2022/04/04 04:18:25;;;;;;;;;;;;;;;-144.19;100.00;77760.44;4963343;28;19968;-85
2022/04/04 04:20:51;;;;;;;;;;;;;;;-144.19;100.00;77770.28;4960840;28;19927;-86
2022/04/04 04:23:18;;;;;;;;;;;;;;;-144.19;100.00;77774.22;4977172;28;19930;-83
2022/04/04 04:25:45;;;;;;;;;;;;;;;-144.19;100.00;77752.56;4960436;28;19972;-84
2022/04/04 04:28:11;;;;;;;;;;;;;;;-144.19;100.00;77752.56;4977083;28;19949;-85
2022/04/04 04:30:38;;;;;;;;;;;;;;;-144.19;100.00;77754.53;4959445;28;19926;-83
2022/04/04 04:33:05;;;;;;;;;;;;;;;-144.19;100.00;77736.81;4982908;28;19925;-85
2022/04/04 04:35:31;;;;;;;;;;;;;;;-144.19;100.00;77742.72;4979185;28;20311;-83
2022/04/04 04:37:58;;;;;;;;;;;;;;;-144.19;100.00;77742.72;4978541;28;19926;-83
2022/04/04 04:40:24;;;;;;;;;;;;;;;-144.19;100.00;77732.88;4978417;28;19929;-81
2022/04/04 04:42:51;;;;;;;;;;;;;;;-144.19;100.00;77725.00;4995626;28;19925;-84
2022/04/04 04:45:18;;;;;;;;;;;;;;;-144.19;100.00;77725.00;4978526;28;19932;-85
2022/04/04 04:47:44;;;;;;;;;;;;;;;-144.19;100.00;77721.06;4995924;28;19930;-85
2022/04/04 04:50:11;;;;;;;;;;;;;;;-144.19;100.00;77711.22;4995415;28;19925;-85
2022/04/04 04:52:38;;;;;;;;;;;;;;;-144.19;100.00;77707.28;4977858;28;19926;-88
2022/04/04 04:55:08;;;;;;;;;;;;;;;-144.19;100.00;77705.31;4995600;28;19998;-83
2022/04/04 04:57:34;;;;;;;;;;;;;;;-144.19;100.00;77685.63;4994527;28;19932;-84
2022/04/04 05:00:03;;;;;;;;;;;;;;;-144.19;100.00;77685.63;4995648;28;20020;-84
2022/04/04 05:02:30;;;;;;;;;;;;;;;-144.19;100.00;77681.69;4977211;28;19925;-81
2022/04/04 05:04:57;;;;;;;;;;;;;;;-144.19;100.00;77677.75;4995205;28;19926;-85
2022/04/04 05:07:23;;;;;;;;;;;;;;;-144.19;100.00;77652.16;4977126;28;19937;-81
2022/04/04 05:09:49;;;;;;;;;;;;;;;-144.19;100.00;77669.88;4994778;28;19925;-83
2022/04/04 05:12:16;;;;;;;;;;;;;;;-144.19;100.00;77634.44;4976140;28;19926;-82
2022/04/04 05:14:46;;;;;;;;;;;;;;;-144.19;100.00;77632.47;4995642;28;19936;-84
2022/04/04 05:17:12;;;;;;;;;;;;;;;-144.19;100.00;77642.31;4994870;28;19932;-83
2022/04/04 05:19:38;;;;;;;;;;;;;;;-144.19;100.00;77618.69;4993948;28;19926;-85
2022/04/04 05:22:05;;;;;;;;;;;;;;;-144.19;100.00;77612.78;4976612;28;19926;-85
2022/04/04 05:24:31;;;;;;;;;;;;;;;-144.19;100.00;77585.22;4994456;28;19932;-85
2022/04/04 05:26:58;;;;;;;;;;;;;;;-144.19;100.00;77599.00;4994103;28;19926;-82
2022/04/04 05:29:26;;;;;;;;;;;;;;;-144.19;100.00;77569.47;4976699;28;19936;-84
2022/04/04 05:31:54;;;;;;;;;;;;;;;-144.19;100.00;77569.47;4971255;28;19932;-85
2022/04/04 05:34:20;;;;;;;;;;;;;;;-144.19;100.00;77583.25;4992928;28;19925;-81
2022/04/04 05:36:47;;;;;;;;;;;;;;;-144.19;100.00;77567.50;4976551;28;19932;-83
2022/04/04 05:39:14;;;;;;;;;;;;;;;-144.19;100.00;77557.63;4993360;28;20418;-82
2022/04/04 05:41:40;;;;;;;;;;;;;;;-144.19;100.00;77553.72;4975501;28;19937;-83
2022/04/04 05:44:07;;;;;;;;;;;;;;;-144.19;100.00;77551.72;4992587;28;20412;-83
2022/04/04 05:46:33;;;;;;;;;;;;;;;-144.19;100.00;77557.63;4976652;28;20316;-84
2022/04/04 05:49:00;;;;;;;;;;;;;;;-144.19;100.00;77539.91;4994062;28;19933;-81
2022/04/04 05:51:28;;;;;;;;;;;;;;;-144.19;100.00;77530.06;4976059;28;19932;-85
2022/04/04 05:54:09;;;;;;;;;;;;;;;-144.19;100.00;77535.97;4978174;28;19930;-80
2022/04/04 05:56:37;;;;;;;;;;;;;;;-144.19;100.00;77514.31;4994199;28;20112;-84
2022/04/04 05:59:04;;;;;;;;;;;;;;;-144.19;100.00;77504.47;4961218;28;20274;-83
2022/04/04 06:01:30;;;;;;;;;;;;;;;-144.19;100.00;77498.56;4957003;28;19932;-82
2022/04/04 06:03:57;;;;;;;;;;;;;;;-144.19;100.00;77472.97;4957023;28;19926;-85
2022/04/04 06:06:24;;;;;;;;;;;;;;;-144.19;100.00;77455.25;4956663;28;20381;-84
2022/04/04 06:08:50;;;;;;;;;;;;;;;-144.19;100.00;77465.09;4958111;28;19926;-83
2022/04/04 06:11:16;;;;;;;;;;;;;;;-144.19;100.00;77449.34;4976427;28;20367;-82
2022/04/04 06:13:43;;;;;;;;;;;;;;;-144.19;100.00;77435.56;5001790;28;19925;-84
2022/04/04 06:16:10;;;;;;;;;;;;;;;-144.19;100.00;77437.53;4994681;28;20392;-84
2022/04/04 06:18:36;;;;;;;;;;;;;;;-144.19;100.00;77417.84;5034840;23;19929;-81
2022/04/04 06:21:02;;;;;;;;;;;;;;;-144.19;100.00;77409.97;5053891;28;19932;-81
2022/04/04 06:23:29;;;;;;;;;;;;;;;-144.19;100.00;77392.25;5054655;28;19944;-83
2022/04/04 06:25:56;;;;;;;;;;;;;;;-144.19;100.00;77382.41;5056533;28;19928;-80
2022/04/04 06:28:24;;;;;;;;;;;;;;;-144.19;100.00;77382.41;5039216;28;19924;-83
2022/04/04 06:30:51;;;;;;;;;;;;;;;-144.19;100.00;77362.72;5035978;28;19933;-81
2022/04/04 06:33:18;;;;;;;;;;;;;;;-144.19;100.00;77356.81;5033261;28;19925;-80
2022/04/04 06:35:47;;;;;;;;;;;;;;;-144.19;100.00;77335.16;5035016;28;20074;-80
2022/04/04 06:38:18;;;;;;;;;;;;;;;-144.19;100.00;77343.03;5047882;28;19925;-80
2022/04/04 06:40:51;;;;;;;;;;;;;;;-144.19;100.00;77335.16;5034619;28;19925;-80
2022/04/04 06:43:22;;;;;;;;;;;;;;;-144.19;100.00;77323.34;5051157;28;19931;-81
2022/04/04 06:45:49;;;;;;;;;;;;;;;-144.19;100.00;77315.47;5032484;28;19932;-81
2022/04/04 06:48:16;;;;;;;;;;;;;;;-144.19;100.00;77299.72;5032950;28;19933;-84
2022/04/04 06:50:43;;;;;;;;;;;;;;;-144.19;100.00;77287.91;5026326;28;20340;-81
2022/04/04 06:53:12;;;;;;;;;;;;;;;-144.19;100.00;77266.25;5029241;28;19926;-82
2022/04/04 06:55:51;;;;;;;;;;;;;;;-144.19;100.00;77256.41;5026988;28;19925;-81
2022/04/04 06:58:26;;;;;;;;;;;;;;;-144.19;100.00;77240.66;5028175;28;19932;-81
2022/04/04 07:00:53;;;;;;;;;;;;;;;-144.19;100.00;77236.72;5031818;28;19967;-83
2022/04/04 07:03:20;;;;;;;;;;;;;;;-144.19;100.00;77228.84;5028217;28;19933;-81
2022/04/04 07:05:48;;;;;;;;;;;;;;;-144.19;100.00;77205.22;5046394;28;20008;-81
2022/04/04 07:08:15;;;;;;;;;;;;;;;-144.19;100.00;77191.44;5046387;28;19936;-79
2022/04/04 07:10:43;;;;;;;;;;;;;;;-144.19;100.00;77224.91;5047237;28;19960;-81
2022/04/04 07:13:09;;;;;;;;;;;;;;;-144.19;100.00;77197.34;5030053;28;19967;-81
2022/04/04 07:15:36;;;;;;;;;;;;;;;-144.19;100.00;77181.59;5029003;28;19925;-80
2022/04/04 07:18:09;;;;;;;;;;;;;;;-144.19;100.00;77189.47;5031388;28;22602;-81
2022/04/04 07:20:38;;;;;;;;;;;;;;;-144.19;100.00;77189.47;5026796;28;20360;-81
2022/04/04 07:23:08;;;;;;;;;;;;;;;-144.19;100.00;77181.59;5025000;28;19949;-83
2022/04/04 07:25:36;;;;;;;;;;;;;;;-144.19;100.00;77177.66;5024233;28;19925;-80
2022/04/04 07:28:03;;;;;;;;;;;;;;;-144.19;100.00;77205.22;5025758;28;19925;-80
2022/04/04 07:30:33;;;;;;;;;;;;;;;-144.19;100.00;77183.56;5026249;28;20308;-81
2022/04/04 07:33:04;;;;;;;;;;;;;;;-144.19;100.00;77181.59;5032283;28;19956;-85
2022/04/04 07:35:31;;;;;;;;;;;;;;;-144.19;100.00;77183.56;5022744;28;20265;-84
2022/04/04 07:37:59;;;;;;;;;;;;;;;-144.19;100.00;77193.41;5041834;28;19925;-87
2022/04/04 07:40:45;;;;;;;;;;;;;;;-144.19;100.00;77189.47;5027957;28;19932;-86
2022/04/04 07:43:15;;;;;;;;;;;;;;;-144.19;100.00;77199.31;5028382;28;19937;-83
2022/04/04 07:45:52;;;;;;;;;;;;;;;-144.19;100.00;77185.53;5033403;28;20007;-83
2022/04/04 07:48:19;;;;;;;;;;;;;;;-144.19;100.00;77165.84;5028817;28;19932;-82
2022/04/04 07:50:46;;;;;;;;;;;;;;;-144.19;100.00;77159.94;5023353;28;19929;-85
2022/04/04 07:53:13;;;;;;;;;;;;;;;-144.19;100.00;77161.91;5032141;28;19947;-81
2022/04/04 07:55:41;;;;;;;;;;;;;;;-144.19;100.00;77157.97;5032757;28;19948;-83
2022/04/04 07:58:08;;;;;;;;;;;;;;;-144.19;100.00;77142.22;5033254;28;19984;-82
2022/04/04 08:00:38;;;;;;;;;;;;;;;-144.19;100.00;77154.03;5033927;28;19972;-83
2022/04/04 08:03:06;;;;;;;;;;;;;;;-144.19;100.00;77134.34;5050400;28;19943;-86
2022/04/04 08:05:33;;;;;;;;;;;;;;;-144.19;100.00;77118.59;5021728;28;19947;-82
2022/04/04 08:08:01;;;;;;;;;;;;;;;-144.19;100.00;77102.84;5044520;28;19933;-84
2022/04/04 08:10:30;;;;;;;;;;;;;;;-144.19;100.00;77081.19;5049029;28;20053;-83
2022/04/04 08:12:58;;;;;;;;;;;;;;;-144.19;100.00;77081.19;5049764;28;20375;-85
2022/04/04 08:15:25;;;;;;;;;;;;;;;-144.19;100.00;77059.53;5067774;28;19948;-84
2022/04/04 08:17:57;;;;;;;;;;;;;;;-144.19;100.00;77055.59;5050765;28;19952;-83
2022/04/04 08:20:25;;;;;;;;;;;;;;;-144.19;100.00;77047.72;5015168;28;19929;-85
2022/04/04 08:22:52;;;;;;;;;;;;;;;-144.19;100.00;77037.88;5032974;28;19932;-84
2022/04/04 08:25:19;;;;;;;;;;;;;;;-144.19;100.00;77039.84;5014677;28;19925;-84
2022/04/04 08:27:47;;;;;;;;;;;;;;;-144.19;100.00;77024.09;5013912;28;19936;-84
2022/04/04 08:30:18;;;;;;;;;;;;;;;-144.19;100.00;77028.03;5014382;28;19926;-84
2022/04/04 08:32:46;;;;;;;;;;;;;;;-144.19;100.00;77037.88;5023424;28;19956;-84
2022/04/04 08:35:15;;;;;;;;;;;;;;;-144.19;100.00;77028.03;5053013;28;19935;-84
2022/04/04 08:37:43;;;;;;;;;;;;;;;-144.19;100.00;77031.97;5035046;28;19925;-82
2022/04/04 08:40:12;;;;;;;;;;;;;;;-144.19;100.00;77043.78;5034194;28;19925;-82
2022/04/04 08:42:42;;;;;;;;;;;;;;;-144.19;100.00;77045.75;5033707;28;19959;-83
2022/04/04 08:45:12;;;;;;;;;;;;;;;-144.19;100.00;77043.78;5033690;28;19925;-83
2022/04/04 08:47:40;;;;;;;;;;;;;;;-144.19;100.00;77043.78;5033196;28;19948;-85
2022/04/04 08:50:11;;;;;;;;;;;;;;;-144.19;100.00;77043.78;5033169;28;19929;-85
2022/04/04 08:52:39;;;;;;;;;;;;;;;-144.19;100.00;77049.69;5032611;28;20081;-85
2022/04/04 08:55:08;;;;;;;;;;;;;;;-144.19;100.00;77063.47;5029326;28;19925;-84
2022/04/04 08:57:35;;;;;;;;;;;;;;;-144.19;100.00;77059.53;5032348;28;19996;-83
2022/04/04 09:00:02;;;;;;;;;;;;;;;-144.19;100.00;77039.84;5044787;28;19948;-84
2022/04/04 09:03:05;;;;;;;;;;;;;;;-144.19;100.00;77055.59;5042943;28;19933;-85
2022/04/04 09:05:36;;;;;;;;;;;;;;;-144.19;100.00;77039.84;5040731;28;19936;-85
2022/04/04 09:08:07;;;;;;;;;;;;;;;-144.19;100.00;77016.22;5026682;28;19929;-85
2022/04/04 09:10:44;;;;;;;;;;;;;;;-144.19;100.00;77012.28;5026759;28;19933;-83
2022/04/04 09:13:15;;;;;;;;;;;;;;;-144.19;100.00;77012.28;5029110;28;20004;-84
2022/04/04 09:15:58;;;;;;;;;;;;;;;-144.19;100.00;77000.47;5050269;28;19929;-85
2022/04/04 09:18:41;;;;;;;;;;;;;;;-144.19;100.00;77004.41;5034968;28;19931;-84
2022/04/04 09:21:09;;;;;;;;;;;;;;;-144.19;100.00;76980.78;5023444;28;20389;-84
2022/04/04 09:23:54;;;;;;;;;;;;;;;-144.19;100.00;77000.47;5021522;28;19925;-83
2022/04/04 09:26:44;;;;;;;;;;;;;;;-144.19;100.00;76982.75;5027953;28;19929;-84
2022/04/04 09:29:19;;;;;;;;;;;;;;;-144.19;100.00;76988.66;5031098;28;19936;-83
2022/04/04 09:32:40;;;;;;;;;;;;;;;-144.19;100.00;76976.84;5032314;28;19989;-84
2022/04/04 09:35:08;;;;;;;;;;;;;;;-144.19;100.00;76972.94;5037885;28;19925;-84
2022/04/04 09:37:52;;;;;;;;;;;;;;;-144.19;100.00;76972.94;5032324;28;19929;-85
2022/04/04 09:40:29;;;;;;;;;;;;;;;-144.19;100.00;76976.84;5032461;28;19929;-84
2022/04/04 09:42:59;;;;;;;;;;;;;;;-144.19;100.00;76982.75;5032452;28;19925;-84
2022/04/04 09:45:30;;;;;;;;;;;;;;;-144.19;100.00;76980.78;5049568;28;19967;-84
2022/04/04 09:47:59;;;;;;;;;;;;;;;-144.19;100.00;76972.94;5032105;28;20334;-84
2022/04/04 09:50:41;;;;;;;;;;;;;;;-144.19;100.00;76982.75;5034556;28;19988;-85
2022/04/04 09:53:12;;;;;;;;;;;;;;;-144.19;100.00;76970.97;5028488;28;19997;-84
2022/04/04 09:55:41;;;;;;;;;;;;;;;-144.19;100.00;76968.97;5029091;28;19948;-84
2022/04/04 09:58:19;;;;;;;;;;;;;;;-144.19;100.00;76941.44;5038260;28;19925;-84
2022/04/04 10:00:52;;;;;;;;;;;;;;;-144.19;100.00;76955.22;5031523;28;19936;-84
2022/04/04 10:03:40;;;;;;;;;;;;;;;;;;;;;
2022/04/04 10:06:31;;;;;;;;;;;;;;;-144.19;100.00;76933.56;5049550;28;19927;-86
2022/04/04 10:09:08;;;;;;;;;;;;;;;-144.19;100.00;76939.47;5031092;28;20295;-87
2022/04/04 10:11:46;;;;;;;;;;;;;;;-144.19;100.00;76921.75;5049165;28;20012;-85
2022/04/04 10:14:16;;;;;;;;;;;;;;;-144.19;100.00;76906.00;5031156;28;19925;-85
2022/04/04 10:16:46;;;;;;;;;;;;;;;-144.19;100.00;76892.22;5031464;28;19925;-84
2022/04/04 10:19:26;;;;;;;;;;;;;;;;;;;;;
2022/04/04 10:22:14;;;;;;;;;;;;;;;-144.19;100.00;76870.56;5033013;28;20307;-85
2022/04/04 10:24:42;;;;;;;;;;;;;;;-144.19;100.00;76882.38;5022369;28;19926;-86
2022/04/04 10:27:12;;;;;;;;;;;;;;;-144.19;100.00;76868.59;5026120;28;19929;-85
2022/04/04 10:29:44;;;;;;;;;;;;;;;-144.19;100.00;76858.75;5043282;28;19933;-86
2022/04/04 10:32:31;;;;;;;;;;;;;;;-144.19;100.00;76860.72;5024606;28;19960;-84
2022/04/04 10:35:10;;;;;;;;;;;;;;;-144.19;100.00;76852.84;5020499;28;19971;-84
2022/04/04 10:37:44;;;;;;;;;;;;;;;-144.19;100.00;76852.84;5019847;28;19975;-85
2022/04/04 10:40:31;;;;;;;;;;;;;;;-144.19;100.00;76850.88;5044016;28;19941;-85
2022/04/04 10:43:12;;;;;;;;;;;;;;;-144.19;100.00;76843.00;5019381;28;19989;-85
2022/04/04 10:46:03;;;;;;;;;;;;;;;-144.19;100.00;76835.13;5036932;28;20543;-84
2022/04/04 10:48:35;;;;;;;;;;;;;;;-144.19;100.00;76839.06;5020982;28;19996;-85
2022/04/04 10:51:09;;;;;;;;;;;;;;;-144.19;100.00;76831.19;5036370;28;19925;-84
2022/04/04 10:53:47;;;;;;;;;;;;;;;-144.19;100.00;76839.06;5022542;28;19963;-86
2022/04/04 10:56:24;;;;;;;;;;;;;;;-144.19;100.00;76831.19;5025827;28;19926;-84
2022/04/04 10:59:11;;;;;;;;;;;;;;;-144.19;100.00;76848.91;5040894;28;20028;-85
2022/04/04 11:08:53;;;;;;;;;;;;;;;-144.19;100.00;76815.44;4967779;28;19927;-84
2022/04/04 11:11:39;;;;;;;;;;;;;;;-144.19;100.00;76803.63;4968178;28;20301;-85
2022/04/04 11:14:11;;;;;;;;;;;;;;;-144.19;100.00;76811.50;5020860;28;19925;-87
2022/04/04 11:16:58;;;;;;;;;;;;;;;-144.19;100.00;76813.47;5019471;28;19955;-90
2022/04/04 11:19:28;;;;;;;;;;;;;;;-144.19;100.00;76805.59;5038507;28;19956;-86
2022/04/04 11:21:56;;;;;;;;;;;;;;;-144.19;100.00;76793.78;5029049;28;19929;-87
2022/04/04 11:24:33;;;;;;;;;;;;;;;-144.19;100.00;76783.94;5031333;28;20023;-87
2022/04/04 11:27:03;;;;;;;;;;;;;;;-144.19;100.00;76774.09;5031518;28;19969;-85
2022/04/04 11:32:59;;;;;;;;;;;;;;;-144.19;100.00;76783.94;4986583;28;19926;-86
2022/04/04 11:35:42;;;;;;;;;;;;;;;-144.19;100.00;76770.16;5019415;28;19925;-85
2022/04/04 11:38:13;;;;;;;;;;;;;;;-144.19;100.00;76778.03;5038291;28;19964;-86
2022/04/04 11:41:01;;;;;;;;;;;;;;;-144.19;100.00;76776.06;5019746;28;19949;-85
2022/04/04 11:43:36;;;;;;;;;;;;;;;-144.19;100.00;76772.13;5029648;28;19932;-84
2022/04/04 11:46:14;;;;;;;;;;;;;;;-144.19;100.00;76762.28;5038238;28;19968;-84
2022/04/04 11:48:56;;;;;;;;;;;;;;;-144.19;100.00;76756.38;5019293;28;19929;-84
2022/04/04 11:51:34;;;;;;;;;;;;;;;-144.19;100.00;76756.38;5015832;28;19948;-83
2022/04/04 11:54:02;;;;;;;;;;;;;;;-144.19;100.00;76758.34;5015751;28;19980;-84
2022/04/04 11:56:42;;;;;;;;;;;;;;;-144.19;100.00;76738.66;5013910;28;19929;-84
2022/04/04 11:59:10;;;;;;;;;;;;;;;-144.19;100.00;76744.56;5041205;28;19932;-83
2022/04/04 12:01:45;;;;;;;;;;;;;;;-144.19;100.00;76744.56;5021649;28;19929;-87
2022/04/04 12:04:21;;;;;;;;;;;;;;;-144.19;100.00;76740.63;5019129;28;19925;-84
2022/04/04 12:06:50;;;;;;;;;;;;;;;-144.19;100.00;76742.59;5040259;28;19926;-84
2022/04/04 12:09:33;;;;;;;;;;;;;;;-144.19;100.00;76740.63;5019093;28;20570;-84
2022/04/04 12:12:25;;;;;;;;;;;;;;;-144.19;100.00;76728.81;5008090;28;20450;-84
2022/04/04 12:14:53;;;;;;;;;;;;;;;-144.19;100.00;76709.13;5013290;28;19952;-84
2022/04/04 12:17:30;;;;;;;;;;;;;;;-144.19;100.00;76717.00;5014694;28;19972;-83
2022/04/04 12:20:08;;;;;;;;;;;;;;;-144.19;100.00;76718.97;5025103;22;19925;-84
2022/04/04 12:25:27;;;;;;;;;;;;;;;-144.19;100.00;76717.00;4991028;28;19925;-82
2022/04/04 12:27:57;;;;;;;;;;;;;;;-144.19;100.00;76705.19;5002975;28;19960;-82
2022/04/04 12:30:31;;;;;;;;;;;;;;;-144.19;100.00;76713.06;5021318;28;20016;-87
2022/04/04 12:33:08;;;;;;;;;;;;;;;-144.19;100.00;76705.19;5005588;28;20346;-80
2022/04/04 12:35:48;;;;;;;;;;;;;;;-144.19;100.00;76699.28;5013946;28;19925;-80
2022/04/04 12:38:28;;;;;;;;;;;;;;;-144.19;100.00;76697.31;5007112;28;19930;-82
2022/04/04 12:41:11;;;;;;;;;;;;;;;-144.19;100.00;76705.19;5019645;28;20320;-82
2022/04/04 12:43:38;;;;;;;;;;;;;;;-144.19;100.00;76711.09;5005241;28;19925;-82
2022/04/04 12:46:06;;;;;;;;;;;;;;;-144.19;100.00;76689.44;5006263;28;19932;-84
2022/04/04 12:48:35;;;;;;;;;;;;;;;-144.19;100.00;76695.34;5004062;28;19925;-83
2022/04/04 12:51:02;;;;;;;;;;;;;;;-144.19;100.00;76685.53;5022274;28;19949;-82